createdAt,value
2019-04-14T00:00:21.260Z,21.3
2019-04-14T00:01:09.317Z,21.2
2019-04-14T00:02:00.978Z,21.3
2019-04-14T00:02:50.956Z,21.3
2019-04-14T00:03:39.274Z,21.2
2019-04-14T00:04:31.418Z,21.3
2019-04-14T00:05:21.559Z,21.2
2019-04-14T00:06:11.419Z,21.2
2019-04-14T00:07:02.020Z,21.3
2019-04-14T00:07:50.293Z,21.2
2019-04-14T00:08:41.474Z,21.3
2019-04-14T00:09:31.521Z,21.2
2019-04-14T00:10:21.080Z,21.2
2019-04-14T00:11:12.502Z,21.2
2019-04-14T00:12:07.485Z,21.2
2019-04-14T00:12:53.479Z,21.2
2019-04-14T00:13:43.404Z,21.2
2019-04-14T00:14:32.158Z,21.2
2019-04-14T00:15:57.096Z,21.2
2019-04-14T00:16:16.840Z,21.2
2019-04-14T00:17:08.397Z,21.2
2019-04-14T00:17:57.264Z,21.2
2019-04-14T00:18:47.438Z,21.2
2019-04-14T00:19:37.423Z,21.2
2019-04-14T00:20:25.410Z,21.2
2019-04-14T00:21:17.727Z,21.2
2019-04-14T00:22:07.793Z,21.2
2019-04-14T00:22:57.387Z,21.2
2019-04-14T00:23:48.030Z,21.2
2019-04-14T00:24:38.031Z,21.2
2019-04-14T00:25:28.259Z,21.2
2019-04-14T00:26:16.885Z,21.2
2019-04-14T00:27:09.026Z,21.2
2019-04-14T00:27:57.149Z,21.2
2019-04-14T00:28:49.030Z,21.2
2019-04-14T00:30:29.385Z,21.2
2019-04-14T00:31:19.194Z,21.2
2019-04-14T00:34:37.822Z,21.2
2019-04-14T00:38:48.433Z,21.2
2019-04-14T00:39:37.835Z,21.2
2019-04-14T01:12:21.839Z,21.1
2019-04-14T01:14:51.659Z,21.1
2019-04-14T01:16:28.121Z,21.1
2019-04-14T01:18:30.291Z,21.1
2019-04-14T01:19:19.840Z,21.1
2019-04-14T01:20:10.594Z,21.1
2019-04-14T01:21:00.755Z,21.1
2019-04-14T01:21:50.774Z,21.1
2019-04-14T01:22:40.170Z,21.1
2019-04-14T01:23:30.967Z,21.1
2019-04-14T01:24:20.876Z,21.1
2019-04-14T01:25:11.129Z,21.1
2019-04-14T01:26:00.645Z,21.1
2019-04-14T01:26:50.872Z,21.1
2019-04-14T01:29:19.486Z,21.1
2019-04-14T01:30:11.050Z,21.1
2019-04-14T01:31:01.074Z,21.1
2019-04-14T01:31:51.434Z,21.1
2019-04-14T01:32:41.991Z,21.1
2019-04-14T01:33:31.480Z,21.1
2019-04-14T01:34:21.657Z,21.1
2019-04-14T01:35:12.209Z,21.1
2019-04-14T01:36:02.271Z,21.1
2019-04-14T01:36:51.702Z,21.1
2019-04-14T01:37:42.098Z,21.1
2019-04-14T01:38:31.822Z,21.1
2019-04-14T01:39:22.062Z,21.1
2019-04-14T01:40:12.038Z,21.1
2019-04-14T01:41:02.108Z,21.1
2019-04-14T01:41:52.007Z,21.1
2019-04-14T01:42:42.548Z,21.1
2019-04-14T01:43:32.001Z,21.1
2019-04-14T01:44:22.580Z,21.1
2019-04-14T01:45:12.083Z,21.1
2019-04-14T01:46:38.881Z,21.1
2019-04-14T01:47:03.596Z,21.1
2019-04-14T01:47:51.740Z,21.1
2019-04-14T01:48:43.126Z,21.1
2019-04-14T01:49:31.808Z,21.1
2019-04-14T01:50:23.130Z,21.1
2019-04-14T01:51:11.853Z,21.1
2019-04-14T01:52:01.363Z,21.1
2019-04-14T01:52:52.765Z,21.1
2019-04-14T01:53:42.687Z,21.1
2019-04-14T01:55:20.792Z,21.1
2019-04-14T01:56:12.287Z,21.1
2019-04-14T01:57:02.944Z,21.1
2019-04-14T01:57:52.254Z,21.1
2019-04-14T01:58:42.244Z,21.1
2019-04-14T01:59:33.129Z,21.1
2019-04-14T02:00:21.152Z,21.1
2019-04-14T02:17:32.738Z,21.2
2019-04-14T02:18:21.438Z,21.2
2019-04-14T02:19:12.909Z,21.2
2019-04-14T02:20:03.187Z,21.2
2019-04-14T02:21:43.333Z,21.2
2019-04-14T02:22:31.773Z,21.2
2019-04-14T02:23:23.558Z,21.2
2019-04-14T02:24:13.410Z,21.2
2019-04-14T02:25:03.470Z,21.2
2019-04-14T02:25:54.092Z,21.2
2019-04-14T02:26:43.690Z,21.2
2019-04-14T02:27:32.274Z,21.2
2019-04-14T02:28:22.012Z,21.2
2019-04-14T02:29:12.060Z,21.2
2019-04-14T02:30:12.820Z,21.2
2019-04-14T02:42:39.404Z,21.2
2019-04-14T02:57:37.163Z,21.3
2019-04-14T03:11:50.998Z,21.3
2019-04-14T03:25:27.526Z,21.3
2019-04-14T03:40:39.375Z,21.3
2019-04-14T03:54:56.265Z,21.3
2019-04-14T03:56:34.134Z,21.3
2019-04-14T03:57:31.242Z,21.3
2019-04-14T03:58:20.331Z,21.3
2019-04-14T03:59:04.679Z,21.3
2019-04-14T03:59:54.701Z,21.3
2019-04-14T04:00:44.822Z,21.3
2019-04-14T04:01:34.444Z,21.3
2019-04-14T04:02:24.495Z,21.3
2019-04-14T04:03:13.335Z,21.3
2019-04-14T04:04:05.237Z,21.4
2019-04-14T04:04:54.056Z,21.4
2019-04-14T04:05:46.114Z,21.3
2019-04-14T04:06:35.389Z,21.3
2019-04-14T04:07:25.621Z,21.4
2019-04-14T04:08:16.243Z,21.3
2019-04-14T04:09:06.772Z,21.4
2019-04-14T04:09:56.677Z,21.4
2019-04-14T04:10:44.842Z,21.4
2019-04-14T04:11:36.622Z,21.4
2019-04-14T04:12:27.149Z,21.4
2019-04-14T04:13:17.134Z,21.4
2019-04-14T04:14:05.642Z,21.4
2019-04-14T04:14:57.406Z,21.4
2019-04-14T04:15:45.415Z,21.4
2019-04-14T04:16:37.384Z,21.4
2019-04-14T04:17:27.502Z,21.4
2019-04-14T04:18:17.510Z,21.4
2019-04-14T04:19:25.035Z,21.4
2019-04-14T04:19:56.122Z,21.4
2019-04-14T04:20:47.644Z,21.4
2019-04-14T04:21:36.509Z,21.4
2019-04-14T04:22:26.560Z,21.4
2019-04-14T04:23:16.747Z,21.4
2019-04-14T04:24:06.356Z,21.4
2019-04-14T04:24:56.440Z,21.4
2019-04-14T04:25:47.054Z,21.4
2019-04-14T04:26:36.466Z,21.4
2019-04-14T04:27:26.477Z,21.4
2019-04-14T04:28:17.152Z,21.4
2019-04-14T04:29:07.571Z,21.4
2019-04-14T04:29:57.466Z,21.4
2019-04-14T04:30:46.921Z,21.4
2019-04-14T04:31:35.904Z,21.4
2019-04-14T04:32:27.499Z,21.4
2019-04-14T04:33:17.426Z,21.4
2019-04-14T04:34:06.131Z,21.4
2019-04-14T04:34:57.511Z,21.4
2019-04-14T04:35:48.346Z,21.4
2019-04-14T04:36:37.675Z,21.4
2019-04-14T04:37:27.712Z,21.4
2019-04-14T04:38:18.568Z,21.4
2019-04-14T04:39:08.198Z,21.4
2019-04-14T04:39:58.164Z,21.4
2019-04-14T04:40:48.547Z,21.4
2019-04-14T04:41:38.551Z,21.4
2019-04-14T04:42:26.488Z,21.4
2019-04-14T04:43:17.529Z,21.4
2019-04-14T04:44:09.868Z,21.4
2019-04-14T04:44:57.961Z,21.4
2019-04-14T04:45:47.351Z,21.4
2019-04-14T04:46:39.730Z,21.4
2019-04-14T04:47:27.888Z,21.4
2019-04-14T04:48:20.130Z,21.4
2019-04-14T04:49:36.041Z,21.4
2019-04-14T04:49:59.970Z,21.4
2019-04-14T04:50:49.784Z,21.4
2019-04-14T04:51:39.911Z,21.4
2019-04-14T04:52:28.715Z,21.4
2019-04-14T04:53:18.626Z,21.4
2019-04-14T04:54:10.076Z,21.4
2019-04-14T04:54:58.347Z,21.4
2019-04-14T04:55:50.262Z,21.4
2019-04-14T04:56:38.800Z,21.4
2019-04-14T04:57:28.987Z,21.4
2019-04-14T04:58:17.803Z,21.4
2019-04-14T04:59:10.273Z,21.4
2019-04-14T05:00:00.491Z,21.4
2019-04-14T05:01:01.889Z,21.4
2019-04-14T05:01:38.641Z,21.4
2019-04-14T05:02:30.719Z,21.4
2019-04-14T05:03:20.814Z,21.4
2019-04-14T05:04:09.529Z,21.4
2019-04-14T05:04:59.552Z,21.4
2019-04-14T05:05:49.704Z,21.4
2019-04-14T05:06:39.832Z,21.4
2019-04-14T05:07:28.005Z,21.4
2019-04-14T05:08:20.036Z,21.4
2019-04-14T05:09:09.888Z,21.4
2019-04-14T05:10:00.597Z,21.4
2019-04-14T05:10:48.664Z,21.4
2019-04-14T05:11:38.298Z,21.4
2019-04-14T05:12:30.506Z,21.4
2019-04-14T05:13:19.084Z,21.4
2019-04-14T05:14:11.417Z,21.4
2019-04-14T05:14:59.452Z,21.4
2019-04-14T05:15:51.632Z,21.4
2019-04-14T05:16:39.634Z,21.4
2019-04-14T05:17:31.706Z,21.4
2019-04-14T05:18:19.873Z,21.4
2019-04-14T05:19:43.826Z,21.4
2019-04-14T05:20:07.851Z,21.4
2019-04-14T05:20:57.936Z,21.4
2019-04-14T05:21:45.941Z,21.4
2019-04-14T05:22:38.048Z,21.4
2019-04-14T05:23:28.289Z,21.4
2019-04-14T05:24:17.802Z,21.4
2019-04-14T05:25:08.408Z,21.4
2019-04-14T05:25:58.096Z,21.4
2019-04-14T05:26:48.372Z,21.4
2019-04-14T05:27:37.058Z,21.4
2019-04-14T05:28:28.725Z,21.4
2019-04-14T05:29:17.198Z,21.4
2019-04-14T05:30:06.849Z,21.4
2019-04-14T05:30:58.856Z,21.4
2019-04-14T05:31:47.025Z,21.4
2019-04-14T05:32:37.436Z,21.4
2019-04-14T05:33:27.632Z,21.4
2019-04-14T05:34:17.274Z,21.4
2019-04-14T05:35:07.922Z,21.4
2019-04-14T05:35:57.407Z,21.4
2019-04-14T05:36:45.898Z,21.4
2019-04-14T05:37:37.757Z,21.4
2019-04-14T05:38:35.394Z,21.4
2019-04-14T05:39:18.232Z,21.4
2019-04-14T05:40:08.301Z,21.4
2019-04-14T05:40:58.233Z,21.4
2019-04-14T05:42:31.815Z,21.4
2019-04-14T05:42:53.699Z,21.4
2019-04-14T05:44:08.408Z,21.4
2019-04-14T05:44:32.522Z,21.4
2019-04-14T05:45:23.986Z,21.4
2019-04-14T05:46:14.060Z,21.4
2019-04-14T05:47:04.880Z,21.4
2019-04-14T05:47:54.829Z,21.4
2019-04-14T05:48:45.175Z,21.4
2019-04-14T05:50:01.146Z,21.4
2019-04-14T05:50:23.210Z,21.4
2019-04-14T05:51:13.585Z,21.4
2019-04-14T05:52:03.385Z,21.4
2019-04-14T05:52:53.486Z,21.4
2019-04-14T05:53:42.059Z,21.4
2019-04-14T05:54:34.452Z,21.4
2019-04-14T05:55:24.076Z,21.4
2019-04-14T05:56:14.242Z,21.4
2019-04-14T05:57:04.307Z,21.4
2019-04-14T05:57:54.525Z,21.4
2019-04-14T05:58:43.021Z,21.4
2019-04-14T05:59:35.228Z,21.4
2019-04-14T06:00:26.110Z,21.4
2019-04-14T06:01:13.577Z,21.4
2019-04-14T06:02:03.144Z,21.4
2019-04-14T06:02:55.078Z,21.4
2019-04-14T06:05:06.406Z,21.4
2019-04-14T06:05:52.158Z,21.4
2019-04-14T06:06:41.659Z,21.4
2019-04-14T06:07:31.728Z,21.4
2019-04-14T06:08:21.784Z,21.4
2019-04-14T06:09:12.121Z,21.4
2019-04-14T06:10:01.888Z,21.4
2019-04-14T06:10:51.970Z,21.4
2019-04-14T06:11:42.353Z,21.4
2019-04-14T06:12:32.615Z,21.4
2019-04-14T06:13:22.176Z,21.4
2019-04-14T06:14:11.991Z,21.4
2019-04-14T06:15:02.601Z,21.4
2019-04-14T06:15:52.576Z,21.4
2019-04-14T06:16:42.919Z,21.4
2019-04-14T06:17:32.473Z,21.4
2019-04-14T06:18:22.220Z,21.4
2019-04-14T06:19:12.825Z,21.4
2019-04-14T06:20:03.213Z,21.4
2019-04-14T06:20:52.963Z,21.4
2019-04-14T06:21:42.761Z,21.4
2019-04-14T06:22:32.833Z,21.4
2019-04-14T06:23:23.165Z,21.4
2019-04-14T06:24:13.248Z,21.4
2019-04-14T06:25:03.346Z,21.4
2019-04-14T06:25:53.320Z,21.4
2019-04-14T06:26:43.690Z,21.4
2019-04-14T06:27:33.717Z,21.4
2019-04-14T06:28:23.503Z,21.4
2019-04-14T06:29:13.557Z,21.4
2019-04-14T06:30:03.932Z,21.4
2019-04-14T06:30:53.440Z,21.4
2019-04-14T06:31:43.467Z,21.4
2019-04-14T06:32:34.077Z,21.4
2019-04-14T06:33:23.325Z,21.4
2019-04-14T06:34:13.374Z,21.4
2019-04-14T06:35:04.252Z,21.4
2019-04-14T06:35:53.782Z,21.4
2019-04-14T06:36:44.097Z,21.4
2019-04-14T06:37:33.710Z,21.4
2019-04-14T06:38:23.492Z,21.4
2019-04-14T06:39:14.097Z,21.4
2019-04-14T06:40:03.613Z,21.4
2019-04-14T06:40:54.703Z,21.4
2019-04-14T06:41:44.819Z,21.4
2019-04-14T06:42:34.579Z,21.4
2019-04-14T06:43:24.875Z,21.4
2019-04-14T06:44:14.199Z,21.4
2019-04-14T06:45:04.784Z,21.4
2019-04-14T06:45:54.786Z,21.4
2019-04-14T06:46:45.152Z,21.4
2019-04-14T06:47:34.886Z,21.4
2019-04-14T06:48:24.961Z,21.4
2019-04-14T06:49:15.302Z,21.4
2019-04-14T06:50:04.809Z,21.4
2019-04-14T06:50:55.136Z,21.4
2019-04-14T06:51:44.374Z,21.4
2019-04-14T06:52:34.994Z,21.4
2019-04-14T06:53:25.389Z,21.4
2019-04-14T06:54:15.384Z,21.4
2019-04-14T06:55:05.749Z,21.4
2019-04-14T06:55:57.388Z,21.4
2019-04-14T06:56:45.016Z,21.4
2019-04-14T06:57:35.186Z,21.4
2019-04-14T06:58:25.690Z,21.4
2019-04-14T06:59:15.236Z,21.4
2019-04-14T07:00:05.605Z,21.4
2019-04-14T07:00:55.608Z,21.4
2019-04-14T07:01:46.211Z,21.4
2019-04-14T07:02:36.002Z,21.4
2019-04-14T07:05:01.826Z,21.4
2019-04-14T07:05:51.840Z,21.4
2019-04-14T07:06:41.965Z,21.4
2019-04-14T07:07:31.946Z,21.4
2019-04-14T07:08:22.005Z,21.4
2019-04-14T07:09:11.605Z,21.4
2019-04-14T07:10:02.426Z,21.4
2019-04-14T07:10:52.184Z,21.4
2019-04-14T07:11:41.707Z,21.4
2019-04-14T07:12:32.301Z,21.4
2019-04-14T07:13:23.421Z,21.4
2019-04-14T07:14:11.587Z,21.4
2019-04-14T07:15:02.495Z,21.4
2019-04-14T07:15:52.837Z,21.4
2019-04-14T07:16:42.917Z,21.4
2019-04-14T07:17:32.995Z,20.4
2019-04-14T07:18:22.192Z,38.3
2019-04-14T07:19:13.102Z,57.3
2019-04-14T07:20:05.329Z,61.4
2019-04-14T07:20:52.929Z,60.6
2019-04-14T07:21:42.769Z,59.8
2019-04-14T07:22:33.032Z,58.9
2019-04-14T07:23:22.559Z,58
2019-04-14T07:24:12.629Z,57.1
2019-04-14T07:25:03.049Z,56.1
2019-04-14T07:25:53.542Z,55.3
2019-04-14T07:26:43.612Z,54.4
2019-04-14T07:27:32.641Z,53.5
2019-04-14T07:28:23.794Z,52.7
2019-04-14T07:29:16.673Z,51.9
2019-04-14T07:30:03.612Z,51.1
2019-04-14T07:30:53.894Z,50.3
2019-04-14T07:31:43.432Z,49.6
2019-04-14T07:32:34.007Z,48.9
2019-04-14T07:33:23.814Z,48.2
2019-04-14T07:34:13.899Z,47.6
2019-04-14T07:35:04.289Z,46.9
2019-04-14T07:35:54.023Z,46.3
2019-04-14T07:36:44.058Z,45.7
2019-04-14T07:37:34.431Z,45.1
2019-04-14T07:38:24.216Z,44.6
2019-04-14T07:39:14.259Z,44
2019-04-14T07:40:03.943Z,43.4
2019-04-14T07:40:54.739Z,42.9
2019-04-14T07:41:44.183Z,42.5
2019-04-14T07:42:34.503Z,42
2019-04-14T07:43:24.576Z,41.6
2019-04-14T07:44:17.679Z,41.1
2019-04-14T07:45:04.715Z,40.6
2019-04-14T07:45:55.053Z,40.2
2019-04-14T07:46:45.151Z,39.8
2019-04-14T07:47:35.178Z,39.4
2019-04-14T07:48:24.966Z,39.1
2019-04-14T07:49:14.732Z,38.7
2019-04-14T07:50:18.232Z,38.3
2019-04-14T07:50:55.392Z,37.9
2019-04-14T07:51:45.303Z,37.6
2019-04-14T07:52:34.789Z,37.3
2019-04-14T07:53:24.837Z,37
2019-04-14T07:54:15.390Z,36.7
2019-04-14T07:55:04.883Z,36.4
2019-04-14T07:55:55.525Z,36.1
2019-04-14T07:56:45.060Z,35.8
2019-04-14T07:57:35.317Z,35.5
2019-04-14T07:58:25.957Z,35.3
2019-04-14T07:59:16.016Z,35
2019-04-14T08:00:05.528Z,34.8
2019-04-14T08:00:55.580Z,34.5
2019-04-14T08:01:45.645Z,34.3
2019-04-14T08:02:35.434Z,34
2019-04-14T08:03:25.791Z,33.8
2019-04-14T08:04:16.126Z,33.5
2019-04-14T08:05:06.187Z,33.3
2019-04-14T08:05:55.950Z,33.1
2019-04-14T08:06:46.305Z,32.9
2019-04-14T08:07:35.793Z,32.7
2019-04-14T08:08:26.387Z,32.5
2019-04-14T08:09:16.729Z,32.3
2019-04-14T08:10:06.581Z,32.1
2019-04-14T08:10:56.592Z,31.9
2019-04-14T08:11:46.689Z,31.8
2019-04-14T08:12:38.257Z,31.6
2019-04-14T08:13:26.494Z,31.4
2019-04-14T08:14:16.835Z,31.3
2019-04-14T08:15:06.626Z,31.1
2019-04-14T08:15:56.454Z,30.9
2019-04-14T08:16:47.299Z,30.8
2019-04-14T08:17:36.860Z,30.6
2019-04-14T08:18:27.158Z,30.5
2019-04-14T08:19:17.191Z,30.4
2019-04-14T08:20:06.739Z,30.3
2019-04-14T08:20:57.599Z,30.1
2019-04-14T08:21:47.438Z,30
2019-04-14T08:22:37.227Z,29.8
2019-04-14T08:23:27.489Z,29.7
2019-04-14T08:24:17.271Z,29.6
2019-04-14T08:25:06.793Z,29.4
2019-04-14T08:25:57.933Z,29.4
2019-04-14T08:26:47.806Z,29.3
2019-04-14T08:27:38.068Z,29.1
2019-04-14T08:28:28.129Z,30.6
2019-04-14T08:29:17.943Z,33.7
2019-04-14T08:30:07.995Z,49.4
2019-04-14T08:30:58.386Z,62.4
2019-04-14T08:31:48.385Z,62.9
2019-04-14T08:32:38.478Z,60.5
2019-04-14T08:33:28.221Z,59
2019-04-14T08:34:18.570Z,57.9
2019-04-14T08:35:07.793Z,57
2019-04-14T08:35:58.698Z,56.1
2019-04-14T08:36:48.475Z,55.3
2019-04-14T08:37:38.250Z,54.4
2019-04-14T08:38:28.902Z,53.6
2019-04-14T08:39:18.632Z,52.8
2019-04-14T08:40:09.038Z,52.1
2019-04-14T08:40:58.209Z,51.3
2019-04-14T08:41:48.540Z,50.6
2019-04-14T08:42:38.882Z,49.9
2019-04-14T08:43:28.985Z,49.3
2019-04-14T08:44:18.730Z,48.6
2019-04-14T08:45:09.405Z,47.9
2019-04-14T08:45:58.605Z,47.3
2019-04-14T08:46:49.222Z,46.7
2019-04-14T08:47:39.052Z,46.1
2019-04-14T08:48:29.045Z,45.6
2019-04-14T08:49:19.682Z,45
2019-04-14T08:50:09.465Z,44.5
2019-04-14T08:50:59.499Z,44
2019-04-14T08:51:49.575Z,43.4
2019-04-14T08:52:39.633Z,42.9
2019-04-14T08:53:29.404Z,42.5
2019-04-14T08:54:19.755Z,42.1
2019-04-14T08:55:09.834Z,41.6
2019-04-14T08:55:59.883Z,41.2
2019-04-14T08:56:49.164Z,40.8
2019-04-14T08:57:40.018Z,40.4
2019-04-14T08:58:29.214Z,40
2019-04-14T08:59:19.609Z,39.6
2019-04-14T09:00:09.690Z,39.3
2019-04-14T09:00:59.976Z,38.9
2019-04-14T09:01:49.839Z,38.6
2019-04-14T09:02:40.087Z,38.2
2019-04-14T09:03:30.142Z,37.9
2019-04-14T09:04:20.191Z,37.6
2019-04-14T09:05:10.544Z,37.3
2019-04-14T09:06:00.049Z,39.2
2019-04-14T09:06:50.667Z,42.1
2019-04-14T09:07:40.710Z,57.3
2019-04-14T09:08:30.489Z,65.1
2019-04-14T09:09:20.866Z,63.9
2019-04-14T09:10:10.981Z,61.1
2019-04-14T09:11:00.948Z,59.6
2019-04-14T09:11:51.039Z,58.5
2019-04-14T09:12:40.554Z,57.6
2019-04-14T09:13:31.481Z,56.8
2019-04-14T09:14:21.213Z,55.8
2019-04-14T09:15:11.352Z,55
2019-04-14T09:16:00.610Z,54.2
2019-04-14T09:16:51.113Z,53.4
2019-04-14T09:17:41.178Z,52.6
2019-04-14T09:19:21.638Z,51.3
2019-04-14T09:20:11.228Z,50.5
2019-04-14T09:21:00.883Z,49.9
2019-04-14T09:21:52.030Z,49.2
2019-04-14T09:22:41.880Z,48.6
2019-04-14T09:23:32.190Z,47.9
2019-04-14T09:24:21.710Z,47.3
2019-04-14T09:25:11.470Z,46.8
2019-04-14T09:26:01.806Z,46.2
2019-04-14T09:26:51.850Z,45.6
2019-04-14T09:27:41.911Z,45.1
2019-04-14T09:28:32.520Z,44.6
2019-04-14T09:29:22.318Z,44.1
2019-04-14T09:30:12.648Z,43.6
2019-04-14T09:31:02.159Z,43.2
2019-04-14T09:31:52.772Z,42.7
2019-04-14T09:32:42.593Z,42.3
2019-04-14T09:33:32.682Z,41.8
2019-04-14T09:34:22.682Z,41.4
2019-04-14T09:35:12.793Z,41
2019-04-14T09:36:02.807Z,40.6
2019-04-14T09:36:52.929Z,40.3
2019-04-14T09:37:43.179Z,39.9
2019-04-14T09:38:32.997Z,39.5
2019-04-14T09:39:22.822Z,39.1
2019-04-14T09:40:12.524Z,38.8
2019-04-14T09:41:03.154Z,38.5
2019-04-14T09:41:52.954Z,38.1
2019-04-14T09:42:42.755Z,37.8
2019-04-14T09:43:33.347Z,37.5
2019-04-14T09:44:23.133Z,37.3
2019-04-14T09:45:13.478Z,36.9
2019-04-14T09:46:03.801Z,36.7
2019-04-14T09:46:53.054Z,36.4
2019-04-14T09:47:43.434Z,36.1
2019-04-14T09:48:32.911Z,35.9
2019-04-14T09:49:23.224Z,35.6
2019-04-14T09:50:13.283Z,35.4
2019-04-14T09:51:08.091Z,35.1
2019-04-14T09:51:54.221Z,34.9
2019-04-14T09:52:44.034Z,34.6
2019-04-14T09:53:33.813Z,34.4
2019-04-14T09:54:24.124Z,34.2
2019-04-14T09:55:14.458Z,34
2019-04-14T09:56:04.539Z,33.8
2019-04-14T09:56:54.369Z,33.6
2019-04-14T09:57:44.469Z,33.4
2019-04-14T09:58:34.704Z,33.1
2019-04-14T09:59:24.516Z,33
2019-04-14T10:00:14.007Z,32.8
2019-04-14T10:01:04.665Z,32.6
2019-04-14T10:01:54.395Z,32.4
2019-04-14T10:02:44.485Z,32.3
2019-04-14T10:03:35.035Z,32.1
2019-04-14T10:06:01.943Z,31.6
2019-04-14T10:06:52.200Z,31.4
2019-04-14T10:07:42.055Z,31.3
2019-04-14T10:08:30.720Z,31.1
2019-04-14T10:09:21.939Z,31
2019-04-14T10:10:12.422Z,30.8
2019-04-14T10:11:01.993Z,30.7
2019-04-14T10:11:59.412Z,30.6
2019-04-14T10:12:42.468Z,30.4
2019-04-14T10:13:32.182Z,30.3
2019-04-14T10:14:21.706Z,30.2
2019-04-14T10:15:11.787Z,30.1
2019-04-14T10:16:01.830Z,29.9
2019-04-14T10:16:52.706Z,29.8
2019-04-14T10:17:41.699Z,29.6
2019-04-14T10:18:32.544Z,29.6
2019-04-14T10:19:22.319Z,29.4
2019-04-14T10:20:12.942Z,29.3
2019-04-14T10:21:02.709Z,29.2
2019-04-14T10:21:52.772Z,29.1
2019-04-14T10:22:42.313Z,29
2019-04-14T10:23:33.167Z,28.9
2019-04-14T10:24:22.693Z,28.8
2019-04-14T10:25:13.331Z,28.7
2019-04-14T10:26:03.369Z,28.6
2019-04-14T10:26:52.867Z,28.5
2019-04-14T10:27:43.571Z,28.4
2019-04-14T10:28:33.537Z,28.3
2019-04-14T10:29:23.361Z,28.2
2019-04-14T10:30:13.459Z,28.1
2019-04-14T10:31:03.461Z,28.1
2019-04-14T10:31:53.529Z,27.9
2019-04-14T10:32:43.295Z,27.9
2019-04-14T10:33:33.654Z,27.8
2019-04-14T10:34:23.151Z,27.7
2019-04-14T10:35:13.526Z,27.6
2019-04-14T10:36:03.646Z,27.5
2019-04-14T10:36:53.346Z,27.4
2019-04-14T10:37:44.027Z,27.4
2019-04-14T10:38:34.351Z,27.3
2019-04-14T10:39:22.683Z,27.3
2019-04-14T10:40:13.869Z,27.2
2019-04-14T10:41:04.503Z,27.1
2019-04-14T10:41:53.442Z,27.1
2019-04-14T10:42:44.313Z,27
2019-04-14T10:43:34.667Z,26.9
2019-04-14T10:44:24.177Z,26.8
2019-04-14T10:45:14.504Z,26.8
2019-04-14T10:46:04.612Z,26.7
2019-04-14T10:46:54.914Z,26.6
2019-04-14T10:47:44.397Z,26.6
2019-04-14T10:48:34.205Z,26.5
2019-04-14T10:49:24.566Z,26.4
2019-04-14T10:50:14.876Z,26.4
2019-04-14T10:51:05.204Z,26.3
2019-04-14T10:51:55.000Z,26.3
2019-04-14T10:52:44.499Z,26.2
2019-04-14T10:53:34.914Z,26.1
2019-04-14T10:54:24.975Z,26.1
2019-04-14T10:55:15.529Z,26.1
2019-04-14T10:56:05.311Z,26
2019-04-14T10:56:55.355Z,25.9
2019-04-14T10:57:45.679Z,25.9
2019-04-14T10:58:35.471Z,25.9
2019-04-14T10:59:25.847Z,25.8
2019-04-14T11:00:15.373Z,25.8
2019-04-14T11:01:05.406Z,25.8
2019-04-14T11:01:56.048Z,25.6
2019-04-14T11:02:45.302Z,25.6
2019-04-14T11:03:36.160Z,25.6
2019-04-14T11:04:25.891Z,25.6
2019-04-14T11:05:16.252Z,25.5
2019-04-14T11:06:05.749Z,25.4
2019-04-14T11:06:56.079Z,25.4
2019-04-14T11:07:46.224Z,25.4
2019-04-14T11:08:36.218Z,25.4
2019-04-14T11:09:26.001Z,25.3
2019-04-14T11:10:16.345Z,25.3
2019-04-14T11:11:06.663Z,25.3
2019-04-14T11:11:56.175Z,25.2
2019-04-14T11:12:46.509Z,25.1
2019-04-14T11:13:36.881Z,25.1
2019-04-14T11:14:26.148Z,25.1
2019-04-14T11:15:18.359Z,25
2019-04-14T11:16:07.031Z,25
2019-04-14T11:16:56.254Z,25
2019-04-14T11:17:47.156Z,24.9
2019-04-14T11:18:36.926Z,24.9
2019-04-14T11:19:27.288Z,24.9
2019-04-14T11:20:16.793Z,24.8
2019-04-14T11:21:07.164Z,24.8
2019-04-14T11:21:57.178Z,24.8
2019-04-14T11:22:47.249Z,24.8
2019-04-14T11:23:37.031Z,24.7
2019-04-14T11:24:27.449Z,24.7
2019-04-14T11:25:17.416Z,24.6
2019-04-14T11:26:07.323Z,24.6
2019-04-14T11:26:57.861Z,24.6
2019-04-14T11:27:47.891Z,24.6
2019-04-14T11:28:37.720Z,24.5
2019-04-14T11:29:28.008Z,24.5
2019-04-14T11:30:18.055Z,24.4
2019-04-14T11:31:07.617Z,24.4
2019-04-14T11:31:58.183Z,24.4
2019-04-14T11:32:47.967Z,24.4
2019-04-14T11:33:38.353Z,24.4
2019-04-14T11:34:28.345Z,24.3
2019-04-14T11:35:20.291Z,24.3
2019-04-14T11:36:08.513Z,24.3
2019-04-14T11:36:58.004Z,24.3
2019-04-14T11:37:47.808Z,24.3
2019-04-14T11:38:38.215Z,24.2
2019-04-14T11:39:28.213Z,24.2
2019-04-14T11:40:18.510Z,24.2
2019-04-14T11:41:08.881Z,24.1
2019-04-14T11:41:59.022Z,24.1
2019-04-14T11:42:55.955Z,24.1
2019-04-14T11:43:38.871Z,24.1
2019-04-14T11:44:28.622Z,24.1
2019-04-14T11:45:18.869Z,24
2019-04-14T11:46:09.062Z,24
2019-04-14T11:46:59.047Z,24.3
2019-04-14T11:47:49.106Z,25.2
2019-04-14T11:48:39.124Z,40.1
2019-04-14T11:49:29.459Z,55.4
2019-04-14T11:50:19.265Z,57.4
2019-04-14T11:51:09.027Z,56.3
2019-04-14T11:51:59.657Z,55.4
2019-04-14T11:52:49.715Z,54.6
2019-04-14T11:53:39.768Z,53.9
2019-04-14T11:54:29.571Z,53.1
2019-04-14T11:56:10.064Z,51.7
2019-04-14T11:56:59.776Z,50.9
2019-04-14T11:57:49.902Z,50.3
2019-04-14T11:58:40.169Z,49.6
2019-04-14T11:59:29.372Z,48.9
2019-04-14T12:00:20.118Z,48.3
2019-04-14T12:01:10.009Z,47.6
2019-04-14T12:01:59.959Z,47
2019-04-14T12:02:49.918Z,46.4
2019-04-14T12:03:40.546Z,45.8
2019-04-14T12:06:01.319Z,44.3
2019-04-14T12:06:52.612Z,43.4
2019-04-14T12:07:55.761Z,43.1
2019-04-14T12:08:31.996Z,42.6
2019-04-14T12:09:22.011Z,42.3
2019-04-14T12:10:11.853Z,41.8
2019-04-14T12:11:02.390Z,41.3
2019-04-14T12:11:52.501Z,40.9
2019-04-14T12:12:41.788Z,40.5
2019-04-14T12:13:31.868Z,40.1
2019-04-14T12:14:22.360Z,39.8
2019-04-14T12:15:19.576Z,39.3
2019-04-14T12:16:02.048Z,38.9
2019-04-14T12:16:52.517Z,38.6
2019-04-14T12:17:42.100Z,38.3
2019-04-14T12:18:32.733Z,37.9
2019-04-14T12:19:22.784Z,37.4
2019-04-14T12:20:12.525Z,37.2
2019-04-14T12:21:03.304Z,36.9
2019-04-14T12:21:52.965Z,36.7
2019-04-14T12:22:42.515Z,36.3
2019-04-14T12:23:32.582Z,36.1
2019-04-14T12:24:22.627Z,35.8
2019-04-14T12:25:13.280Z,35.6
2019-04-14T12:26:23.305Z,35.3
2019-04-14T12:26:53.267Z,34.9
2019-04-14T12:27:47.047Z,34.7
2019-04-14T12:28:36.612Z,34.4
2019-04-14T12:29:41.462Z,34.3
2019-04-14T12:30:17.908Z,33.9
2019-04-14T12:31:07.060Z,33.8
2019-04-14T12:32:43.797Z,33.3
2019-04-14T12:33:33.965Z,33.2
2019-04-14T12:34:38.266Z,32.9
2019-04-14T12:35:13.436Z,32.8
2019-04-14T12:36:04.034Z,32.6
2019-04-14T12:36:54.324Z,32.4
2019-04-14T12:37:44.369Z,32.3
2019-04-14T12:38:33.991Z,32.1
2019-04-14T12:39:23.167Z,31.8
2019-04-14T12:40:13.260Z,31.8
2019-04-14T12:41:11.002Z,31.6
2019-04-14T12:41:54.464Z,31.3
2019-04-14T12:42:43.945Z,31.3
2019-04-14T12:43:34.295Z,31.1
2019-04-14T12:44:24.649Z,30.9
2019-04-14T12:45:15.373Z,30.8
2019-04-14T12:46:07.112Z,30.6
2019-04-14T12:46:54.521Z,30.5
2019-04-14T12:47:44.836Z,30.4
2019-04-14T12:48:34.633Z,30.2
2019-04-14T12:49:25.049Z,30.1
2019-04-14T12:50:14.755Z,29.9
2019-04-14T12:51:04.883Z,29.8
2019-04-14T12:51:54.908Z,29.6
2019-04-14T12:52:59.901Z,29.6
2019-04-14T12:53:35.020Z,29.4
2019-04-14T12:54:25.126Z,29.3
2019-04-14T12:55:15.623Z,29.2
2019-04-14T12:56:05.505Z,29.1
2019-04-14T12:56:55.006Z,29
2019-04-14T12:57:45.827Z,28.9
2019-04-14T12:58:35.370Z,28.8
2019-04-14T12:59:25.777Z,28.7
2019-04-14T13:00:15.972Z,28.6
2019-04-14T13:01:05.561Z,28.5
2019-04-14T13:01:56.148Z,28.4
2019-04-14T13:02:45.723Z,28.3
2019-04-14T13:04:25.970Z,28.1
2019-04-14T13:05:16.177Z,28
2019-04-14T13:06:06.161Z,27.9
2019-04-14T13:07:46.341Z,27.8
2019-04-14T13:08:35.832Z,27.6
2019-04-14T13:09:26.224Z,27.6
2019-04-14T13:10:16.759Z,27.4
2019-04-14T13:11:06.332Z,27.4
2019-04-14T13:11:55.830Z,27.3
2019-04-14T13:13:00.530Z,27.3
2019-04-14T13:13:36.247Z,27.1
2019-04-14T13:14:26.564Z,27.1
2019-04-14T13:15:16.944Z,27
2019-04-14T13:16:06.392Z,26.9
2019-04-14T13:16:56.470Z,26.9
2019-04-14T13:17:46.798Z,26.8
2019-04-14T13:18:52.072Z,26.8
2019-04-14T13:19:27.129Z,26.7
2019-04-14T13:20:17.266Z,26.6
2019-04-14T13:21:07.291Z,26.6
2019-04-14T13:21:57.380Z,26.4
2019-04-14T13:22:46.866Z,26.4
2019-04-14T13:23:37.516Z,26.4
2019-04-14T13:24:27.279Z,26.3
2019-04-14T13:25:17.529Z,26.3
2019-04-14T13:26:06.868Z,26.2
2019-04-14T13:26:57.438Z,26.1
2019-04-14T13:27:47.813Z,26.1
2019-04-14T13:28:52.451Z,26
2019-04-14T13:29:27.590Z,25.9
2019-04-14T13:30:17.706Z,25.9
2019-04-14T13:31:08.041Z,25.8
2019-04-14T13:31:58.518Z,25.8
2019-04-14T13:32:47.644Z,25.8
2019-04-14T13:33:55.356Z,25.6
2019-04-14T13:34:28.483Z,25.6
2019-04-14T13:35:18.603Z,25.6
2019-04-14T13:36:08.412Z,25.6
2019-04-14T13:36:58.707Z,25.5
2019-04-14T13:37:48.591Z,25.4
2019-04-14T13:38:37.835Z,25.4
2019-04-14T13:39:28.703Z,25.3
2019-04-14T13:40:19.118Z,25.3
2019-04-14T13:41:08.183Z,25.3